createdAt,value
2019-01-27T00:03:24.657Z,22.74
2019-01-27T00:05:52.825Z,22.84
2019-01-27T00:08:21.084Z,22.85
2019-01-27T00:10:49.260Z,22.80
2019-01-27T00:13:17.475Z,22.82
2019-01-27T00:15:45.646Z,22.87
2019-01-27T00:18:13.843Z,22.82
2019-01-27T00:23:29.205Z,22.81
2019-01-27T00:25:57.388Z,22.81
2019-01-27T00:28:25.538Z,22.77
2019-01-27T00:31:12.761Z,22.79
2019-01-27T00:33:40.977Z,22.82
2019-01-27T00:36:09.204Z,22.83
2019-01-27T00:38:37.443Z,22.81
2019-01-27T00:41:05.668Z,22.77
2019-01-27T00:43:33.855Z,22.82
2019-01-27T00:46:02.017Z,22.84
2019-01-27T00:48:30.219Z,22.81
2019-01-27T00:50:58.432Z,22.76
2019-01-27T00:53:26.631Z,22.82
2019-01-27T00:55:54.816Z,22.85
2019-01-27T00:58:23.043Z,22.77
2019-01-27T01:00:51.195Z,22.82
2019-01-27T01:03:19.459Z,22.83
2019-01-27T01:05:47.670Z,22.80
2019-01-27T01:08:15.946Z,22.67
2019-01-27T01:10:44.158Z,22.80
2019-01-27T01:13:12.383Z,22.76
2019-01-27T01:15:40.638Z,22.74
2019-01-27T01:18:08.841Z,22.83
2019-01-27T01:20:37.059Z,22.80
2019-01-27T01:23:05.659Z,22.80
2019-01-27T01:25:33.851Z,22.81
2019-01-27T01:28:02.031Z,22.80
2019-01-27T01:30:30.216Z,22.80
2019-01-27T01:32:59.506Z,22.76
2019-01-27T01:35:28.139Z,22.72
2019-01-27T01:37:56.393Z,22.77
2019-01-27T01:40:24.569Z,22.77
2019-01-27T01:42:52.730Z,22.77
2019-01-27T01:45:22.056Z,22.77
2019-01-27T01:47:50.268Z,22.74
2019-01-27T01:50:18.428Z,22.82
2019-01-27T01:52:46.657Z,22.79
2019-01-27T01:55:14.920Z,22.72
2019-01-27T01:57:43.234Z,22.79
2019-01-27T02:00:12.813Z,22.74
2019-01-27T02:02:40.989Z,22.75
2019-01-27T02:05:09.661Z,22.82
2019-01-27T02:07:37.880Z,22.83
2019-01-27T02:10:06.129Z,22.83
2019-01-27T02:12:34.354Z,22.81
2019-01-27T02:15:02.586Z,22.83
2019-01-27T02:17:30.733Z,22.81
2019-01-27T02:19:58.932Z,22.83
2019-01-27T02:22:27.191Z,22.72
2019-01-27T02:24:55.432Z,22.73
2019-01-27T02:27:23.574Z,22.80
2019-01-27T02:29:51.751Z,22.74
2019-01-27T02:32:19.925Z,22.77
2019-01-27T02:34:48.112Z,22.76
2019-01-27T02:37:16.233Z,22.77
2019-01-27T02:39:44.412Z,22.78
2019-01-27T02:42:12.639Z,22.75
2019-01-27T02:44:40.901Z,22.84
2019-01-27T02:47:09.059Z,22.80
2019-01-27T02:49:56.331Z,22.76
2019-01-27T02:52:24.500Z,22.80
2019-01-27T02:57:39.848Z,22.72
2019-01-27T03:00:08.124Z,22.77
2019-01-27T03:02:36.305Z,22.84
2019-01-27T03:07:55.636Z,22.78
2019-01-27T03:10:23.812Z,22.87
2019-01-27T03:12:52.003Z,22.89
2019-01-27T03:15:20.141Z,22.85
2019-01-27T03:17:48.385Z,22.84
2019-01-27T03:20:16.641Z,22.77
2019-01-27T03:22:44.798Z,22.85
2019-01-27T03:25:13.023Z,22.84
2019-01-27T03:27:41.529Z,22.91
2019-01-27T03:33:00.474Z,22.91
2019-01-27T03:35:28.687Z,22.91
2019-01-27T03:37:56.925Z,22.83
2019-01-27T03:40:25.083Z,22.82
2019-01-27T03:42:53.250Z,22.80
2019-01-27T03:45:21.415Z,22.88
2019-01-27T03:48:08.501Z,22.88
2019-01-27T03:50:36.683Z,22.85
2019-01-27T03:53:04.879Z,22.85
2019-01-27T03:55:33.158Z,22.88
2019-01-27T03:58:01.281Z,22.85
2019-01-27T04:00:29.459Z,22.89
2019-01-27T04:02:57.678Z,22.90
2019-01-27T04:05:25.899Z,22.89
2019-01-27T04:07:54.120Z,22.91
2019-01-27T04:10:22.444Z,22.91
2019-01-27T04:12:50.637Z,22.85
2019-01-27T04:15:18.986Z,22.86
2019-01-27T04:17:47.272Z,22.96
2019-01-27T04:20:35.452Z,22.88
2019-01-27T04:23:03.638Z,22.93
2019-01-27T04:25:31.845Z,22.89
2019-01-27T04:28:00.063Z,22.85
2019-01-27T04:33:21.741Z,22.86
2019-01-27T04:35:49.966Z,22.86
2019-01-27T04:38:18.107Z,22.93
2019-01-27T04:40:46.349Z,22.88
2019-01-27T04:43:14.505Z,22.89
2019-01-27T04:45:42.664Z,22.86
2019-01-27T04:48:10.865Z,22.95
2019-01-27T04:50:39.126Z,22.92
2019-01-27T04:53:26.187Z,22.84
2019-01-27T04:55:57.246Z,22.79
2019-01-27T04:58:44.556Z,22.82
2019-01-27T05:01:12.803Z,22.83
2019-01-27T05:03:59.902Z,22.81
2019-01-27T05:09:28.789Z,22.90
2019-01-27T05:11:57.002Z,22.84
2019-01-27T05:14:25.145Z,22.86
2019-01-27T05:16:53.298Z,22.94
2019-01-27T05:19:40.614Z,22.37
2019-01-27T05:22:08.796Z,22.89
2019-01-27T05:24:55.938Z,22.87
2019-01-27T05:27:25.387Z,22.87
2019-01-27T05:29:53.939Z,22.91
2019-01-27T05:32:22.134Z,22.90
2019-01-27T05:34:50.290Z,22.86
2019-01-27T05:37:18.548Z,22.88
2019-01-27T05:42:54.578Z,22.85
2019-01-27T05:45:22.788Z,22.89
2019-01-27T05:47:51.037Z,22.87
2019-01-27T05:50:19.195Z,22.89
2019-01-27T05:52:47.344Z,22.91
2019-01-27T05:55:15.619Z,22.89
2019-01-27T05:58:02.949Z,22.90
2019-01-27T06:03:07.717Z,22.88
2019-01-27T06:05:35.901Z,22.81
2019-01-27T06:10:37.519Z,22.86
2019-01-27T06:13:24.815Z,22.92
2019-01-27T06:15:53.043Z,22.87
2019-01-27T06:18:21.269Z,22.90
2019-01-27T06:21:08.415Z,22.92
2019-01-27T06:23:36.578Z,22.90
2019-01-27T06:26:23.857Z,22.92
2019-01-27T06:31:26.194Z,22.99
2019-01-27T06:33:59.050Z,22.95
2019-01-27T06:36:46.106Z,22.98
2019-01-27T06:39:14.254Z,22.98
2019-01-27T06:41:42.462Z,22.92
2019-01-27T06:44:10.595Z,22.91
2019-01-27T06:46:38.800Z,22.93
2019-01-27T06:49:06.951Z,22.88
2019-01-27T06:51:35.204Z,22.88
2019-01-27T06:54:03.402Z,22.89
2019-01-27T06:56:31.576Z,22.95
2019-01-27T06:59:18.689Z,22.94
2019-01-27T07:02:05.775Z,22.97
2019-01-27T07:04:52.836Z,22.88
2019-01-27T07:07:39.974Z,22.85
2019-01-27T07:10:27.490Z,22.95
2019-01-27T07:13:03.018Z,22.87
2019-01-27T07:15:50.150Z,22.90
2019-01-27T07:18:34.377Z,22.89
2019-01-27T07:21:21.523Z,22.87
2019-01-27T07:24:08.716Z,22.87
2019-01-27T07:26:42.498Z,22.88
2019-01-27T07:29:29.249Z,22.94
2019-01-27T07:32:16.329Z,22.86
2019-01-27T07:35:03.430Z,22.89
2019-01-27T07:37:50.500Z,22.92
2019-01-27T07:40:37.639Z,22.95
2019-01-27T07:43:24.847Z,22.97
2019-01-27T07:46:31.013Z,22.90
2019-01-27T07:49:18.094Z,22.91
2019-01-27T07:52:05.179Z,22.95
2019-01-27T07:54:52.224Z,22.92
2019-01-27T07:57:39.571Z,22.89
2019-01-27T08:00:19.626Z,22.91
2019-01-27T08:03:11.982Z,22.96
2019-01-27T08:05:55.512Z,22.85
2019-01-27T08:08:31.933Z,22.90
2019-01-27T08:11:19.053Z,22.95
2019-01-27T08:14:06.125Z,22.95
2019-01-27T08:16:53.235Z,23.05
2019-01-27T08:19:59.375Z,23.01
2019-01-27T08:22:46.461Z,22.95
2019-01-27T08:25:33.583Z,22.93
2019-01-27T08:28:20.645Z,22.97
2019-01-27T08:31:07.718Z,22.95
2019-01-27T08:33:50.949Z,22.92
2019-01-27T08:36:38.020Z,22.85
2019-01-27T08:39:26.281Z,22.85
2019-01-27T08:42:13.364Z,22.88
2019-01-27T08:45:00.413Z,22.89
2019-01-27T08:47:28.571Z,22.93
2019-01-27T08:49:56.745Z,22.91
2019-01-27T08:55:12.608Z,22.93
2019-01-27T08:57:40.757Z,22.86
2019-01-27T09:00:09.902Z,22.81
2019-01-27T09:02:56.971Z,22.83
2019-01-27T09:08:26.001Z,22.89
2019-01-27T09:11:13.069Z,22.85
2019-01-27T09:14:00.162Z,22.97
2019-01-27T09:16:47.220Z,22.83
2019-01-27T09:19:34.290Z,22.83
2019-01-27T09:22:18.727Z,22.84
2019-01-27T09:25:05.765Z,22.89
2019-01-27T09:27:52.829Z,22.84
2019-01-27T09:33:29.039Z,22.84
2019-01-27T09:36:16.080Z,22.82
2019-01-27T09:39:03.160Z,22.80
2019-01-27T09:41:50.220Z,22.76
2019-01-27T09:44:37.356Z,22.82
2019-01-27T09:47:24.404Z,22.81
2019-01-27T09:49:58.697Z,22.87
2019-01-27T09:52:45.753Z,22.85
2019-01-27T09:55:32.799Z,22.87
2019-01-27T09:58:09.140Z,22.92
2019-01-27T10:00:56.210Z,22.83
2019-01-27T10:03:43.324Z,22.83
2019-01-27T10:06:30.477Z,22.61
2019-01-27T10:09:17.554Z,22.94
2019-01-27T10:12:04.691Z,22.92
2019-01-27T10:14:41.776Z,22.88
2019-01-27T10:17:28.865Z,22.87
2019-01-27T10:20:15.998Z,22.90
2019-01-27T10:23:03.166Z,22.83
2019-01-27T10:25:50.268Z,22.96
2019-01-27T10:28:37.361Z,22.92
2019-01-27T10:31:24.405Z,22.94
2019-01-27T10:34:11.499Z,22.87
2019-01-27T10:36:58.595Z,22.87
2019-01-27T10:39:45.714Z,22.94
2019-01-27T10:42:32.886Z,22.89
2019-01-27T10:45:19.970Z,22.92
2019-01-27T10:48:07.033Z,22.84
2019-01-27T10:50:54.132Z,22.87
2019-01-27T10:53:41.196Z,22.85
2019-01-27T10:56:28.262Z,22.95
2019-01-27T10:59:01.226Z,22.88
2019-01-27T11:01:48.344Z,22.90
2019-01-27T11:04:35.402Z,22.83
2019-01-27T11:07:22.477Z,22.89
2019-01-27T11:10:09.558Z,22.95
2019-01-27T11:12:56.609Z,22.95
2019-01-27T11:15:43.651Z,22.93
2019-01-27T11:18:30.702Z,22.89
2019-01-27T11:21:17.780Z,22.96
2019-01-27T11:24:04.826Z,22.94
2019-01-27T11:26:51.901Z,22.92
2019-01-27T11:29:58.033Z,22.88
2019-01-27T11:32:45.076Z,22.84
2019-01-27T11:35:32.125Z,22.90
2019-01-27T11:38:19.186Z,22.96
2019-01-27T11:41:06.229Z,22.84
2019-01-27T11:43:53.268Z,22.88
2019-01-27T11:46:32.628Z,22.89
2019-01-27T11:49:09.245Z,22.97
2019-01-27T11:51:56.325Z,22.81
2019-01-27T11:54:24.464Z,22.83
2019-01-27T11:56:52.596Z,22.91
2019-01-27T11:59:20.777Z,22.99
2019-01-27T12:01:48.905Z,22.94
2019-01-27T12:04:17.093Z,22.94
2019-01-27T12:06:45.236Z,22.95
2019-01-27T12:09:13.386Z,22.89
2019-01-27T12:11:41.540Z,22.86
2019-01-27T12:14:09.673Z,22.87
2019-01-27T12:16:37.845Z,22.91
2019-01-27T12:19:05.988Z,22.91
2019-01-27T12:21:34.120Z,22.90
2019-01-27T12:24:02.260Z,22.94
2019-01-27T12:26:49.311Z,22.99
2019-01-27T12:29:17.513Z,22.94
2019-01-27T12:31:45.671Z,22.88
2019-01-27T12:34:13.845Z,22.88
2019-01-27T12:36:41.969Z,22.93
2019-01-27T12:39:10.516Z,22.87
2019-01-27T12:41:38.685Z,22.86
2019-01-27T12:44:06.821Z,22.93
2019-01-27T12:46:34.986Z,22.96
2019-01-27T12:51:51.814Z,22.94
2019-01-27T12:54:19.956Z,22.92
2019-01-27T12:56:48.202Z,22.98
2019-01-27T12:59:16.345Z,22.91
2019-01-27T13:01:44.485Z,22.93
2019-01-27T13:04:12.624Z,22.95
2019-01-27T13:06:41.127Z,22.97
2019-01-27T13:09:10.598Z,22.93
2019-01-27T13:11:38.723Z,22.91
2019-01-27T13:14:06.861Z,22.92
2019-01-27T13:16:35.006Z,22.93
2019-01-27T13:19:03.161Z,22.66
2019-01-27T13:21:31.307Z,22.96
2019-01-27T13:23:59.449Z,22.94
2019-01-27T13:26:27.597Z,22.96
2019-01-27T13:28:55.740Z,22.98
2019-01-27T13:31:23.899Z,22.93
2019-01-27T13:33:52.036Z,22.94
2019-01-27T13:36:20.285Z,22.96
2019-01-27T13:38:51.111Z,23.03
2019-01-27T13:41:18.232Z,22.98
2019-01-27T13:43:46.382Z,22.99
2019-01-27T13:46:14.495Z,22.90
2019-01-27T13:48:42.635Z,22.93
2019-01-27T13:51:10.790Z,22.94
2019-01-27T13:53:38.953Z,22.91
2019-01-27T13:56:07.091Z,22.92
2019-01-27T13:58:35.257Z,22.94
2019-01-27T14:01:03.412Z,22.94
2019-01-27T14:03:31.544Z,22.89
2019-01-27T14:05:59.715Z,22.88
2019-01-27T14:08:27.856Z,22.85
2019-01-27T14:10:56.009Z,22.90
2019-01-27T14:13:24.152Z,22.82
2019-01-27T14:15:52.398Z,22.87
2019-01-27T14:18:20.548Z,22.87
2019-01-27T14:20:48.690Z,22.89
2019-01-27T14:23:16.857Z,22.89
2019-01-27T14:25:45.013Z,22.90
2019-01-27T14:28:13.177Z,22.93
2019-01-27T14:30:42.192Z,22.93
2019-01-27T14:33:10.340Z,22.93
2019-01-27T14:35:38.489Z,22.88
2019-01-27T14:38:06.621Z,22.87
2019-01-27T14:40:34.765Z,22.87
2019-01-27T14:43:02.896Z,22.80
2019-01-27T14:45:31.114Z,22.81
2019-01-27T14:47:59.448Z,22.85
2019-01-27T14:50:46.668Z,22.83
2019-01-27T14:53:15.184Z,22.88
2019-01-27T14:55:43.323Z,22.90
2019-01-27T14:58:11.468Z,22.85
2019-01-27T15:00:40.395Z,22.83
2019-01-27T15:03:09.061Z,22.78
2019-01-27T15:05:37.163Z,22.74
2019-01-27T15:08:05.471Z,22.81
2019-01-27T15:10:33.629Z,22.79
2019-01-27T15:13:01.770Z,22.77
2019-01-27T15:15:29.913Z,22.73
2019-01-27T15:17:58.156Z,22.79
2019-01-27T15:20:27.686Z,22.76
2019-01-27T15:22:55.861Z,22.77
2019-01-27T15:25:24.009Z,22.74
2019-01-27T15:27:52.137Z,22.71
2019-01-27T15:30:21.667Z,22.76
2019-01-27T15:32:49.799Z,22.78
2019-01-27T15:35:17.949Z,22.77
2019-01-27T15:37:46.096Z,22.67
2019-01-27T15:40:14.254Z,22.73
2019-01-27T15:45:17.811Z,22.66
2019-01-27T15:47:45.973Z,22.67
2019-01-27T15:50:15.315Z,22.70
2019-01-27T15:52:43.484Z,22.66
2019-01-27T15:55:12.136Z,22.70
2019-01-27T15:57:40.296Z,22.68
2019-01-27T16:00:10.663Z,22.71
2019-01-27T16:02:38.921Z,22.72
2019-01-27T16:05:08.461Z,22.72
2019-01-27T16:07:36.596Z,22.67
2019-01-27T16:10:24.308Z,22.72
2019-01-27T16:12:52.483Z,22.70
2019-01-27T16:15:21.606Z,22.68
2019-01-27T16:17:49.759Z,22.73
2019-01-27T16:20:17.990Z,22.69
2019-01-27T16:23:05.055Z,22.69
2019-01-27T16:25:33.254Z,22.70
2019-01-27T16:28:20.478Z,22.65
2019-01-27T16:31:07.557Z,22.69
2019-01-27T16:36:48.428Z,22.69
2019-01-27T16:39:16.591Z,22.71
2019-01-27T16:41:44.760Z,22.69
2019-01-27T16:44:31.837Z,22.69
2019-01-27T16:46:59.956Z,21.99
2019-01-27T16:49:28.096Z,22.70
2019-01-27T16:51:56.253Z,22.74
2019-01-27T16:54:24.401Z,22.73
2019-01-27T16:56:52.567Z,22.69
2019-01-27T16:59:20.704Z,22.70
2019-01-27T17:01:48.856Z,22.74
2019-01-27T17:04:16.992Z,22.73
2019-01-27T17:06:45.143Z,22.75
2019-01-27T17:09:13.292Z,22.77
2019-01-27T17:11:41.433Z,22.76
2019-01-27T17:14:09.570Z,22.80
2019-01-27T17:16:37.723Z,22.77
2019-01-27T17:21:39.678Z,22.74
2019-01-27T17:24:07.847Z,22.74
2019-01-27T17:26:51.454Z,22.78
2019-01-27T17:29:24.871Z,22.75
2019-01-27T17:31:53.012Z,22.73
2019-01-27T17:34:21.172Z,22.76
2019-01-27T17:37:08.648Z,22.73
2019-01-27T17:39:36.826Z,22.79
2019-01-27T17:42:05.020Z,22.84
2019-01-27T17:44:33.156Z,22.79
2019-01-27T17:47:01.296Z,22.83
2019-01-27T17:49:48.526Z,22.89
2019-01-27T17:52:35.757Z,22.79
2019-01-27T17:55:03.942Z,22.79
2019-01-27T17:57:51.069Z,22.81
2019-01-27T18:00:38.130Z,22.84
2019-01-27T18:03:15.600Z,22.83
2019-01-27T18:06:02.655Z,22.84
2019-01-27T18:08:49.747Z,22.79
2019-01-27T18:11:23.572Z,22.90
2019-01-27T18:14:10.628Z,22.81
2019-01-27T18:16:38.773Z,22.82
2019-01-27T18:19:06.940Z,22.80
2019-01-27T18:21:35.111Z,22.81
2019-01-27T18:24:03.248Z,22.84
2019-01-27T18:26:31.418Z,22.81
2019-01-27T18:31:46.816Z,22.86
2019-01-27T18:34:14.986Z,22.94
2019-01-27T18:36:43.130Z,22.92
2019-01-27T18:39:12.081Z,22.98
2019-01-27T18:41:59.301Z,22.93
2019-01-27T18:44:27.462Z,22.97
2019-01-27T18:46:55.590Z,22.90
2019-01-27T18:49:23.778Z,22.97
2019-01-27T18:51:52.451Z,22.93
2019-01-27T18:57:27.582Z,22.96
2019-01-27T19:00:14.679Z,23.06
2019-01-27T19:03:01.981Z,22.89
2019-01-27T19:05:49.211Z,23.02
2019-01-27T19:08:36.431Z,22.96
2019-01-27T19:11:23.624Z,23.04
2019-01-27T19:14:00.249Z,23.01
2019-01-27T19:16:47.447Z,22.90
2019-01-27T19:19:34.803Z,22.93
2019-01-27T19:22:21.952Z,22.95
2019-01-27T19:25:09.092Z,22.99
2019-01-27T19:27:56.349Z,23.01
2019-01-27T19:30:43.462Z,22.95
2019-01-27T19:33:30.754Z,23.00
2019-01-27T19:36:17.800Z,23.01
2019-01-27T19:39:24.065Z,22.88
2019-01-27T19:42:11.318Z,22.92
2019-01-27T19:44:58.365Z,22.97
2019-01-27T19:47:45.595Z,22.89
2019-01-27T19:50:32.727Z,22.93
2019-01-27T19:53:19.915Z,22.96
2019-01-27T19:55:56.440Z,22.89
2019-01-27T19:58:43.664Z,22.89
2019-01-27T20:01:18.367Z,22.90
2019-01-27T20:04:05.501Z,22.92
2019-01-27T20:06:52.655Z,22.90
2019-01-27T20:09:39.792Z,22.94
2019-01-27T20:12:26.941Z,22.89
2019-01-27T20:15:01.660Z,22.87
2019-01-27T20:17:48.838Z,22.91
2019-01-27T20:20:36.075Z,22.84
2019-01-27T20:23:23.218Z,22.84
2019-01-27T20:26:10.275Z,22.80
2019-01-27T20:29:16.456Z,22.83
2019-01-27T20:32:03.548Z,22.85
2019-01-27T20:34:50.661Z,22.86
2019-01-27T20:37:29.000Z,22.91
2019-01-27T20:40:16.072Z,22.94
2019-01-27T20:43:03.155Z,22.93
2019-01-27T20:45:38.302Z,22.84
2019-01-27T20:48:17.191Z,22.88
2019-01-27T20:51:04.331Z,22.93
2019-01-27T20:53:50.218Z,22.85
2019-01-27T20:56:37.313Z,22.91
2019-01-27T20:59:16.354Z,22.95
2019-01-27T21:02:03.533Z,22.98
2019-01-27T21:04:50.616Z,22.96
2019-01-27T21:07:37.718Z,22.92
2019-01-27T21:10:26.023Z,22.88
2019-01-27T21:13:05.868Z,22.94
2019-01-27T21:15:47.966Z,22.92
2019-01-27T21:18:35.975Z,22.90
2019-01-27T21:21:04.192Z,22.85
2019-01-27T21:23:51.428Z,22.87
2019-01-27T21:26:19.615Z,22.81
2019-01-27T21:28:47.841Z,22.86
2019-01-27T21:31:16.058Z,22.83
2019-01-27T21:33:44.257Z,22.83
2019-01-27T21:36:12.423Z,22.83
2019-01-27T21:38:41.041Z,22.85
2019-01-27T21:41:09.245Z,22.76
2019-01-27T21:43:37.541Z,22.77
2019-01-27T21:46:24.835Z,22.84
2019-01-27T21:48:53.067Z,22.78
2019-01-27T21:51:21.340Z,22.85
2019-01-27T21:53:49.570Z,22.82
2019-01-27T21:56:17.774Z,22.84
2019-01-27T21:58:45.984Z,22.82
2019-01-27T22:01:14.154Z,22.88
2019-01-27T22:03:42.282Z,22.80
2019-01-27T22:06:10.442Z,22.84
2019-01-27T22:08:38.642Z,22.80
2019-01-27T22:11:06.881Z,22.86
2019-01-27T22:16:41.122Z,22.78
2019-01-27T22:19:09.488Z,22.77
2019-01-27T22:21:37.680Z,22.85
2019-01-27T22:24:05.836Z,22.84
2019-01-27T22:26:34.000Z,22.83
2019-01-27T22:29:21.269Z,22.82
2019-01-27T22:31:49.580Z,22.81
2019-01-27T22:34:17.783Z,22.85
2019-01-27T22:36:46.010Z,22.81
2019-01-27T22:39:14.256Z,22.79
2019-01-27T22:41:42.445Z,22.75
2019-01-27T22:44:29.637Z,22.80
2019-01-27T22:46:57.829Z,22.79
2019-01-27T22:52:18.489Z,22.81
2019-01-27T22:54:46.717Z,22.80
2019-01-27T22:57:15.020Z,22.81
2019-01-27T22:59:43.262Z,22.81
2019-01-27T23:02:11.545Z,22.82
2019-01-27T23:04:39.679Z,22.85
2019-01-27T23:07:07.835Z,22.85
2019-01-27T23:09:35.968Z,22.82
2019-01-27T23:12:04.168Z,22.81
2019-01-27T23:14:32.292Z,22.85
2019-01-27T23:17:19.548Z,22.81
2019-01-27T23:19:47.698Z,22.83
2019-01-27T23:22:15.902Z,22.79
2019-01-27T23:24:44.053Z,22.83
2019-01-27T23:27:12.212Z,22.85
2019-01-27T23:29:40.404Z,22.83
2019-01-27T23:32:08.561Z,22.75
2019-01-27T23:37:10.505Z,22.79
2019-01-27T23:39:38.696Z,22.82
2019-01-27T23:42:06.920Z,22.81
2019-01-27T23:44:54.202Z,22.81
2019-01-27T23:47:22.360Z,22.86
2019-01-27T23:49:50.596Z,22.84
2019-01-27T23:52:18.738Z,22.77
2019-01-27T23:54:48.273Z,22.81
2019-01-27T23:57:35.669Z,22.87
